createdAt,value
2023-04-30T00:00:12.210Z,49
2023-04-30T00:00:42.619Z,49
2023-04-30T00:01:12.680Z,49
2023-04-30T00:01:46.865Z,51
2023-04-30T00:02:18.837Z,47
2023-04-30T00:02:41.983Z,45
2023-04-30T00:03:03.953Z,42
2023-04-30T00:03:39.590Z,45
2023-04-30T00:04:10.764Z,45
2023-04-30T00:04:42.973Z,45
2023-04-30T00:05:12.547Z,45
2023-04-30T00:05:46.725Z,44
2023-04-30T00:06:18.765Z,44
2023-04-30T00:06:41.238Z,42
2023-04-30T00:07:03.627Z,27
2023-04-30T00:07:38.775Z,14
2023-04-30T00:08:11.202Z,14
2023-04-30T00:08:43.206Z,15
2023-04-30T00:09:12.743Z,15
2023-04-30T00:09:46.853Z,9
2023-04-30T00:10:18.964Z,339
2023-04-30T00:10:41.745Z,329
2023-04-30T00:11:04.313Z,307
2023-04-30T00:11:38.859Z,294
2023-04-30T00:12:10.953Z,255
2023-04-30T00:12:42.821Z,249
2023-04-30T00:13:12.570Z,259
2023-04-30T00:13:46.789Z,258
2023-04-30T00:14:18.725Z,268
2023-04-30T00:14:41.410Z,269
2023-04-30T00:15:04.898Z,285
2023-04-30T00:15:38.600Z,295
2023-04-30T00:16:11.245Z,308
2023-04-30T00:16:42.656Z,318
2023-04-30T00:17:12.527Z,317
2023-04-30T00:17:46.746Z,312
2023-04-30T00:18:18.736Z,310
2023-04-30T00:18:41.419Z,310
2023-04-30T00:19:03.796Z,294
2023-04-30T00:19:38.830Z,269
2023-04-30T00:20:10.847Z,277
2023-04-30T00:20:42.872Z,308
2023-04-30T00:21:12.500Z,311
2023-04-30T00:21:46.777Z,293
2023-04-30T00:22:18.719Z,287
2023-04-30T00:22:41.482Z,291
2023-04-30T00:23:04.085Z,293
2023-04-30T00:23:38.811Z,295
2023-04-30T00:24:10.731Z,298
2023-04-30T00:24:42.725Z,304
2023-04-30T00:25:12.879Z,303
2023-04-30T00:25:46.688Z,301
2023-04-30T00:26:18.705Z,300
2023-04-30T00:26:41.355Z,300
2023-04-30T00:27:03.716Z,301
2023-04-30T00:27:40.888Z,303
2023-04-30T00:28:11.148Z,313
2023-04-30T00:28:42.769Z,326
2023-04-30T00:29:12.546Z,333
2023-04-30T00:29:46.836Z,335
2023-04-30T00:30:18.619Z,337
2023-04-30T00:30:41.370Z,338
2023-04-30T00:31:04.021Z,340
2023-04-30T00:31:38.643Z,341
2023-04-30T00:32:11.665Z,341
2023-04-30T00:32:42.630Z,342
2023-04-30T00:33:12.578Z,344
2023-04-30T00:33:46.595Z,344
2023-04-30T00:34:18.710Z,344
2023-04-30T00:34:41.391Z,344
2023-04-30T00:35:03.706Z,344
2023-04-30T00:35:39.187Z,342
2023-04-30T00:36:12.001Z,332
2023-04-30T00:36:42.792Z,337
2023-04-30T00:37:12.574Z,341
2023-04-30T00:37:47.251Z,343
2023-04-30T00:38:18.761Z,344
2023-04-30T00:38:41.397Z,344
2023-04-30T00:39:03.832Z,345
2023-04-30T00:39:38.822Z,346
2023-04-30T00:40:13.554Z,351
2023-04-30T00:40:42.694Z,353
2023-04-30T00:41:12.694Z,353
2023-04-30T00:41:46.634Z,353
2023-04-30T00:42:18.957Z,353
2023-04-30T00:42:41.660Z,353
2023-04-30T00:43:03.965Z,353
2023-04-30T00:43:38.850Z,353
2023-04-30T00:44:12.982Z,355
2023-04-30T00:44:42.668Z,355
2023-04-30T00:45:13.132Z,348
2023-04-30T00:45:47.187Z,352
2023-04-30T00:46:18.829Z,353
2023-04-30T00:46:41.612Z,353
2023-04-30T00:47:03.991Z,353
2023-04-30T00:47:38.697Z,353
2023-04-30T00:48:10.755Z,353
2023-04-30T00:48:42.633Z,353
2023-04-30T00:49:13.713Z,353
2023-04-30T00:49:46.678Z,353
2023-04-30T00:50:19.098Z,355
2023-04-30T00:50:41.843Z,355
2023-04-30T00:51:04.062Z,355
2023-04-30T00:51:38.667Z,355
2023-04-30T00:52:10.693Z,355
2023-04-30T00:52:42.791Z,355
2023-04-30T00:53:14.203Z,355
2023-04-30T00:53:46.765Z,0
2023-04-30T00:54:18.664Z,5
2023-04-30T00:54:41.054Z,7
2023-04-30T00:55:03.686Z,7
2023-04-30T00:55:38.732Z,7
2023-04-30T00:56:11.184Z,7
2023-04-30T00:56:42.679Z,9
2023-04-30T00:57:14.643Z,14
2023-04-30T00:57:46.599Z,18
2023-04-30T00:58:19.376Z,25
2023-04-30T00:58:42.071Z,25
2023-04-30T00:59:04.546Z,25
2023-04-30T00:59:38.765Z,24
2023-04-30T01:00:10.857Z,24
2023-04-30T01:00:42.733Z,24
2023-04-30T01:01:15.827Z,24
2023-04-30T01:01:47.504Z,25
2023-04-30T01:02:18.786Z,27
2023-04-30T01:02:41.471Z,28
2023-04-30T01:03:04.169Z,34
2023-04-30T01:03:38.820Z,35
2023-04-30T01:04:10.840Z,35
2023-04-30T01:04:42.649Z,33
2023-04-30T01:05:12.627Z,34
2023-04-30T01:05:46.574Z,34
2023-04-30T01:06:20.724Z,34
2023-04-30T01:06:43.394Z,34
2023-04-30T01:07:05.677Z,34
2023-04-30T01:07:38.822Z,34
2023-04-30T01:08:10.572Z,34
2023-04-30T01:08:42.687Z,34
2023-04-30T01:09:12.474Z,34
2023-04-30T01:09:46.688Z,34
2023-04-30T01:10:18.966Z,34
2023-04-30T01:10:41.580Z,34
2023-04-30T01:11:04.224Z,34
2023-04-30T01:11:38.837Z,34
2023-04-30T01:12:10.808Z,34
2023-04-30T01:12:42.763Z,34
2023-04-30T01:13:12.771Z,34
2023-04-30T01:13:46.614Z,34
2023-04-30T01:14:18.761Z,34
2023-04-30T01:14:41.469Z,34
2023-04-30T01:15:04.152Z,34
2023-04-30T01:15:38.900Z,34
2023-04-30T01:16:10.710Z,34
2023-04-30T01:16:43.798Z,34
2023-04-30T01:17:12.463Z,34
2023-04-30T01:17:46.703Z,34
2023-04-30T01:18:18.821Z,34
2023-04-30T01:18:41.474Z,34
2023-04-30T01:19:08.073Z,33
2023-04-30T01:19:38.659Z,28
2023-04-30T01:20:11.077Z,25
2023-04-30T01:20:42.551Z,25
2023-04-30T01:21:12.892Z,25
2023-04-30T01:21:46.675Z,23
2023-04-30T01:22:19.049Z,23
2023-04-30T01:22:41.753Z,23
2023-04-30T01:23:04.203Z,23
2023-04-30T01:23:38.860Z,23
2023-04-30T01:24:10.757Z,22
2023-04-30T01:24:42.904Z,17
2023-04-30T01:25:12.510Z,14
2023-04-30T01:25:46.710Z,15
2023-04-30T01:26:18.865Z,14
2023-04-30T01:26:41.491Z,14
2023-04-30T01:27:04.640Z,15
2023-04-30T01:27:38.686Z,15
2023-04-30T01:28:10.669Z,15
2023-04-30T01:28:42.685Z,15
2023-04-30T01:29:12.635Z,15
2023-04-30T01:29:47.056Z,14
2023-04-30T01:30:19.646Z,14
2023-04-30T01:30:41.456Z,14
2023-04-30T01:31:03.817Z,13
2023-04-30T01:31:38.812Z,13
2023-04-30T01:32:10.532Z,13
2023-04-30T01:32:42.963Z,11
2023-04-30T01:33:12.832Z,11
2023-04-30T01:33:46.913Z,10
2023-04-30T01:34:19.167Z,9
2023-04-30T01:34:41.327Z,9
2023-04-30T01:35:03.835Z,9
2023-04-30T01:35:38.719Z,8
2023-04-30T01:36:10.772Z,8
2023-04-30T01:36:42.546Z,9
2023-04-30T01:37:14.053Z,12
2023-04-30T01:37:46.723Z,13
2023-04-30T01:38:19.602Z,13
2023-04-30T01:38:41.751Z,13
2023-04-30T01:39:04.000Z,13
2023-04-30T01:39:38.972Z,13
2023-04-30T01:40:10.744Z,14
2023-04-30T01:40:42.650Z,16
2023-04-30T01:41:12.450Z,17
2023-04-30T01:41:46.894Z,17
2023-04-30T01:42:20.069Z,17
2023-04-30T01:42:41.492Z,17
2023-04-30T01:43:04.074Z,17
2023-04-30T01:43:38.688Z,17
2023-04-30T01:44:10.768Z,17
2023-04-30T01:44:42.784Z,17
2023-04-30T01:45:12.888Z,17
2023-04-30T01:45:46.776Z,17
2023-04-30T01:46:20.695Z,17
2023-04-30T01:46:41.730Z,17
2023-04-30T01:47:03.880Z,17
2023-04-30T01:47:39.468Z,17
2023-04-30T01:48:10.592Z,17
2023-04-30T01:48:42.661Z,17
2023-04-30T01:49:12.609Z,17
2023-04-30T01:49:46.844Z,17
2023-04-30T01:50:21.152Z,17
2023-04-30T01:50:41.566Z,17
2023-04-30T01:51:04.044Z,17
2023-04-30T01:51:38.753Z,17
2023-04-30T01:52:10.731Z,17
2023-04-30T01:52:42.657Z,17
2023-04-30T01:53:14.104Z,17
2023-04-30T01:53:46.806Z,17
2023-04-30T01:54:21.665Z,17
2023-04-30T01:54:42.383Z,17
2023-04-30T01:55:04.475Z,17
2023-04-30T01:55:38.958Z,17
2023-04-30T01:56:10.645Z,17
2023-04-30T01:56:43.547Z,17
2023-04-30T01:57:14.666Z,18
2023-04-30T01:57:47.299Z,21
2023-04-30T01:58:18.530Z,24
2023-04-30T01:58:41.306Z,24
2023-04-30T01:59:03.916Z,24
2023-04-30T01:59:38.733Z,23
2023-04-30T02:00:11.158Z,23
2023-04-30T02:00:42.722Z,23
2023-04-30T02:01:13.318Z,22
2023-04-30T02:01:46.669Z,21
2023-04-30T02:02:18.712Z,6
2023-04-30T02:02:41.595Z,5
2023-04-30T02:03:03.956Z,4
2023-04-30T02:03:39.446Z,5
2023-04-30T02:04:10.797Z,5
2023-04-30T02:04:43.132Z,5
2023-04-30T02:05:12.623Z,5
2023-04-30T02:05:46.977Z,5
2023-04-30T02:06:18.543Z,5
2023-04-30T02:06:41.498Z,4
2023-04-30T02:07:04.294Z,3
2023-04-30T02:07:38.643Z,3
2023-04-30T02:08:10.997Z,3
2023-04-30T02:08:42.582Z,3
2023-04-30T02:09:12.633Z,3
2023-04-30T02:09:46.642Z,3
2023-04-30T02:10:18.662Z,3
2023-04-30T02:10:41.828Z,3
2023-04-30T02:11:03.824Z,3
2023-04-30T02:11:38.711Z,1
2023-04-30T02:12:10.816Z,355
2023-04-30T02:12:42.742Z,355
2023-04-30T02:13:12.915Z,355
2023-04-30T02:13:47.269Z,355
2023-04-30T02:14:18.818Z,356
2023-04-30T02:14:41.636Z,356
2023-04-30T02:15:04.454Z,357
2023-04-30T02:15:38.806Z,357
2023-04-30T02:16:10.915Z,358
2023-04-30T02:16:42.768Z,358
2023-04-30T02:17:12.561Z,358
2023-04-30T02:17:46.622Z,359
2023-04-30T02:18:20.207Z,1
2023-04-30T02:18:42.926Z,1
2023-04-30T02:19:05.282Z,1
2023-04-30T02:19:38.853Z,1
2023-04-30T02:20:10.905Z,357
2023-04-30T02:20:42.686Z,356
2023-04-30T02:21:12.450Z,355
2023-04-30T02:21:47.051Z,355
2023-04-30T02:22:18.631Z,355
2023-04-30T02:22:41.382Z,352
2023-04-30T02:23:03.729Z,353
2023-04-30T02:23:38.722Z,355
2023-04-30T02:24:10.661Z,356
2023-04-30T02:24:42.646Z,353
2023-04-30T02:25:12.776Z,359
2023-04-30T02:25:47.057Z,359
2023-04-30T02:26:18.689Z,3
2023-04-30T02:26:41.406Z,3
2023-04-30T02:27:03.687Z,3
2023-04-30T02:27:38.832Z,2
2023-04-30T02:28:10.657Z,358
2023-04-30T02:28:42.973Z,351
2023-04-30T02:29:12.511Z,331
2023-04-30T02:29:47.546Z,323
2023-04-30T02:30:18.750Z,320
2023-04-30T02:30:41.247Z,323
2023-04-30T02:31:03.674Z,317
2023-04-30T02:31:38.773Z,323
2023-04-30T02:32:10.999Z,325
2023-04-30T02:32:42.668Z,325
2023-04-30T02:33:12.583Z,316
2023-04-30T02:33:46.697Z,318
2023-04-30T02:34:18.629Z,312
2023-04-30T02:34:42.641Z,314
2023-04-30T02:35:04.035Z,317
2023-04-30T02:35:39.020Z,317
2023-04-30T02:36:10.601Z,317
2023-04-30T02:36:42.685Z,314
2023-04-30T02:37:12.653Z,310
2023-04-30T02:37:46.882Z,313
2023-04-30T02:38:18.702Z,319
2023-04-30T02:38:41.368Z,319
2023-04-30T02:39:04.461Z,316
2023-04-30T02:39:38.541Z,315
2023-04-30T02:40:10.814Z,315
2023-04-30T02:40:42.683Z,310
2023-04-30T02:41:13.052Z,311
2023-04-30T02:41:46.635Z,311
2023-04-30T02:42:18.680Z,310
2023-04-30T02:42:41.333Z,310
2023-04-30T02:43:04.268Z,309
2023-04-30T02:43:38.971Z,307
2023-04-30T02:44:10.740Z,305
2023-04-30T02:44:42.741Z,301
2023-04-30T02:45:12.618Z,286
2023-04-30T02:45:46.766Z,279
2023-04-30T02:46:18.808Z,263
2023-04-30T02:46:41.449Z,261
2023-04-30T02:47:03.893Z,269
2023-04-30T02:47:38.770Z,278
2023-04-30T02:48:10.692Z,294
2023-04-30T02:48:42.737Z,286
2023-04-30T02:49:12.964Z,287
2023-04-30T02:49:46.723Z,302
2023-04-30T02:50:18.638Z,305
2023-04-30T02:50:41.348Z,308
2023-04-30T02:51:03.646Z,320
2023-04-30T02:51:38.920Z,324
2023-04-30T02:52:10.655Z,325
2023-04-30T02:52:42.735Z,328
2023-04-30T02:53:12.560Z,343
2023-04-30T02:53:46.732Z,343
2023-04-30T02:54:18.496Z,344
2023-04-30T02:54:41.353Z,344
2023-04-30T02:55:04.008Z,350
2023-04-30T02:55:38.623Z,353
2023-04-30T02:56:11.157Z,357
2023-04-30T02:56:42.615Z,1
2023-04-30T02:57:12.751Z,2
2023-04-30T02:57:46.656Z,5
2023-04-30T02:58:19.003Z,6
2023-04-30T02:58:41.725Z,6
2023-04-30T02:59:04.037Z,6
2023-04-30T02:59:39.369Z,9
2023-04-30T03:00:10.846Z,12
2023-04-30T03:00:42.808Z,12
2023-04-30T03:01:12.513Z,12
2023-04-30T03:01:46.917Z,13
2023-04-30T03:02:18.644Z,15
2023-04-30T03:02:41.494Z,15
2023-04-30T03:03:04.141Z,17
2023-04-30T03:03:38.964Z,14
2023-04-30T03:04:10.592Z,18
2023-04-30T03:04:42.649Z,17
2023-04-30T03:05:12.518Z,15
2023-04-30T03:05:46.671Z,14
2023-04-30T03:06:23.561Z,18
2023-04-30T03:06:46.023Z,16
2023-04-30T03:07:22.807Z,13
2023-04-30T03:07:45.639Z,15
2023-04-30T03:08:08.085Z,18
2023-04-30T03:08:42.503Z,15
2023-04-30T03:09:12.466Z,15
2023-04-30T03:09:46.786Z,12
2023-04-30T03:10:18.488Z,17
2023-04-30T03:10:41.337Z,37
2023-04-30T03:11:03.659Z,47
2023-04-30T03:11:38.743Z,31
2023-04-30T03:12:10.645Z,30
2023-04-30T03:12:42.564Z,30
2023-04-30T03:13:12.566Z,29
2023-04-30T03:13:46.543Z,29
2023-04-30T03:14:18.634Z,29
2023-04-30T03:14:41.288Z,30
2023-04-30T03:15:04.036Z,29
2023-04-30T03:15:38.678Z,29
2023-04-30T03:16:10.560Z,27
2023-04-30T03:16:42.580Z,27
2023-04-30T03:17:12.554Z,26
2023-04-30T03:17:46.659Z,24
2023-04-30T03:18:18.704Z,24
2023-04-30T03:18:41.524Z,23
2023-04-30T03:19:03.841Z,20
2023-04-30T03:19:38.842Z,17
2023-04-30T03:20:10.592Z,7
2023-04-30T03:20:42.660Z,7
2023-04-30T03:21:12.444Z,9
2023-04-30T03:21:46.640Z,10
2023-04-30T03:22:18.578Z,10
2023-04-30T03:22:41.438Z,10
2023-04-30T03:23:03.702Z,10
2023-04-30T03:23:38.868Z,10
2023-04-30T03:24:10.560Z,15
2023-04-30T03:24:42.634Z,17
2023-04-30T03:25:12.481Z,18
2023-04-30T03:25:46.612Z,25
2023-04-30T03:26:18.703Z,25
2023-04-30T03:26:41.935Z,27
2023-04-30T03:27:04.307Z,19
2023-04-30T03:27:38.542Z,18
2023-04-30T03:28:10.543Z,302
2023-04-30T03:28:42.523Z,156
2023-04-30T03:29:12.632Z,198
2023-04-30T03:29:46.458Z,346
2023-04-30T03:30:18.761Z,345
2023-04-30T03:30:41.857Z,316
2023-04-30T03:31:04.325Z,243
2023-04-30T03:31:38.804Z,12
2023-04-30T03:32:10.626Z,356
2023-04-30T03:32:42.566Z,3
2023-04-30T03:33:12.598Z,28
2023-04-30T03:33:46.563Z,334
2023-04-30T03:34:18.548Z,336
2023-04-30T03:34:41.388Z,357
2023-04-30T03:35:03.571Z,272
2023-04-30T03:35:38.803Z,344
2023-04-30T03:36:10.534Z,355
2023-04-30T03:36:42.833Z,33
2023-04-30T03:37:12.618Z,21
2023-04-30T03:37:46.583Z,269
2023-04-30T03:38:18.520Z,358
2023-04-30T03:38:41.288Z,24
2023-04-30T03:39:03.628Z,10
2023-04-30T03:39:39.450Z,24
2023-04-30T03:40:10.518Z,355
2023-04-30T03:40:42.583Z,313
2023-04-30T03:41:12.624Z,353
2023-04-30T03:41:46.624Z,70
2023-04-30T03:42:18.674Z,54
2023-04-30T03:42:41.341Z,84
2023-04-30T03:43:03.730Z,160
2023-04-30T03:43:40.398Z,146
2023-04-30T03:44:10.623Z,12
2023-04-30T03:44:42.798Z,329
2023-04-30T03:45:12.661Z,254
2023-04-30T03:45:46.638Z,248
2023-04-30T03:46:18.752Z,311
2023-04-30T03:46:41.536Z,315
2023-04-30T03:47:03.857Z,286
2023-04-30T03:47:40.841Z,300
2023-04-30T03:48:10.888Z,258
2023-04-30T03:48:42.516Z,255
2023-04-30T03:49:12.483Z,271
2023-04-30T03:49:46.528Z,256
2023-04-30T03:50:18.717Z,313
2023-04-30T03:50:41.404Z,341
2023-04-30T03:51:03.664Z,3
2023-04-30T03:51:42.337Z,355
2023-04-30T03:52:10.609Z,4
2023-04-30T03:52:42.684Z,5
2023-04-30T03:53:12.578Z,5
2023-04-30T03:53:46.708Z,5
2023-04-30T03:54:18.512Z,348
2023-04-30T03:54:41.730Z,337
2023-04-30T03:55:03.919Z,340
2023-04-30T03:55:38.715Z,331
2023-04-30T03:56:10.667Z,336
2023-04-30T03:56:42.608Z,332
2023-04-30T03:57:12.555Z,331
2023-04-30T03:57:46.703Z,342
2023-04-30T03:58:18.628Z,347
2023-04-30T03:58:42.342Z,347
2023-04-30T03:59:03.881Z,347
2023-04-30T03:59:38.719Z,356
2023-04-30T04:00:11.508Z,339
2023-04-30T04:00:43.514Z,353
2023-04-30T04:01:12.691Z,353
2023-04-30T04:01:46.916Z,356
2023-04-30T04:02:19.031Z,0
2023-04-30T04:02:43.076Z,1
2023-04-30T04:03:03.748Z,5
2023-04-30T04:03:38.734Z,6
2023-04-30T04:04:10.869Z,8
2023-04-30T04:04:44.206Z,30
2023-04-30T04:05:14.691Z,33
2023-04-30T04:05:46.724Z,35
2023-04-30T04:06:18.638Z,34
2023-04-30T04:06:43.646Z,38
2023-04-30T04:07:04.243Z,43
2023-04-30T04:07:39.073Z,55
2023-04-30T04:08:10.717Z,66
2023-04-30T04:08:43.760Z,63
2023-04-30T04:09:12.586Z,66
2023-04-30T04:09:46.641Z,60
2023-04-30T04:10:18.650Z,66
2023-04-30T04:10:44.041Z,62
2023-04-30T04:11:04.491Z,64
2023-04-30T04:11:38.756Z,62
2023-04-30T04:12:10.616Z,62
2023-04-30T04:12:45.275Z,63
2023-04-30T04:13:12.611Z,57
2023-04-30T04:13:47.131Z,52
2023-04-30T04:14:18.730Z,49
2023-04-30T04:14:41.369Z,49
2023-04-30T04:15:04.265Z,44
2023-04-30T04:15:38.931Z,42
2023-04-30T04:16:10.717Z,42
2023-04-30T04:16:44.828Z,42
2023-04-30T04:17:12.696Z,39
2023-04-30T04:17:46.554Z,39
2023-04-30T04:18:18.853Z,38
2023-04-30T04:18:41.508Z,37
2023-04-30T04:19:03.800Z,37
2023-04-30T04:19:38.802Z,36
2023-04-30T04:20:13.342Z,36
2023-04-30T04:20:45.254Z,35
2023-04-30T04:21:12.609Z,36
2023-04-30T04:21:46.679Z,36
2023-04-30T04:22:18.665Z,36
2023-04-30T04:22:41.408Z,36
2023-04-30T04:23:03.884Z,37
2023-04-30T04:23:38.848Z,34
2023-04-30T04:24:10.644Z,38
2023-04-30T04:24:42.795Z,30
2023-04-30T04:25:12.554Z,32
2023-04-30T04:25:46.843Z,31
2023-04-30T04:26:18.643Z,30
2023-04-30T04:26:41.548Z,30
2023-04-30T04:27:03.939Z,29
2023-04-30T04:27:38.692Z,32
2023-04-30T04:28:10.735Z,33
2023-04-30T04:28:42.656Z,32
2023-04-30T04:29:12.644Z,32
2023-04-30T04:29:46.673Z,32
2023-04-30T04:30:18.670Z,33
2023-04-30T04:30:41.410Z,35
2023-04-30T04:31:03.855Z,32
2023-04-30T04:31:38.842Z,32
2023-04-30T04:32:10.712Z,32
2023-04-30T04:32:42.626Z,32
2023-04-30T04:33:12.561Z,32
2023-04-30T04:33:48.009Z,32
2023-04-30T04:34:18.662Z,32
2023-04-30T04:34:41.456Z,32
2023-04-30T04:35:03.906Z,31
2023-04-30T04:35:38.674Z,29
2023-04-30T04:36:10.678Z,29
2023-04-30T04:36:42.681Z,26
2023-04-30T04:37:12.530Z,19
2023-04-30T04:37:47.574Z,9
2023-04-30T04:38:18.740Z,7
2023-04-30T04:38:41.226Z,6
2023-04-30T04:39:03.543Z,6
2023-04-30T04:39:38.728Z,6
2023-04-30T04:40:10.592Z,6
2023-04-30T04:40:42.630Z,6
2023-04-30T04:41:14.650Z,6
2023-04-30T04:41:47.990Z,6
2023-04-30T04:42:18.556Z,6
2023-04-30T04:42:41.623Z,6
2023-04-30T04:43:04.145Z,6
2023-04-30T04:43:38.684Z,6
2023-04-30T04:44:11.673Z,6
2023-04-30T04:44:42.640Z,6
2023-04-30T04:45:12.589Z,6
2023-04-30T04:45:48.976Z,5
2023-04-30T04:46:18.632Z,4
2023-04-30T04:46:41.275Z,357
2023-04-30T04:47:03.545Z,355
2023-04-30T04:47:38.762Z,356
2023-04-30T04:48:10.685Z,356
2023-04-30T04:48:42.498Z,356
2023-04-30T04:49:12.548Z,356
2023-04-30T04:49:49.434Z,356
2023-04-30T04:50:18.576Z,356
2023-04-30T04:50:41.768Z,356
2023-04-30T04:51:04.162Z,356
2023-04-30T04:51:38.669Z,356
2023-04-30T04:52:10.741Z,356
2023-04-30T04:52:42.561Z,356
2023-04-30T04:53:14.658Z,355
2023-04-30T04:53:46.783Z,356
2023-04-30T04:54:18.717Z,356
2023-04-30T04:54:41.586Z,355
2023-04-30T04:55:03.894Z,356
2023-04-30T04:55:38.617Z,356
2023-04-30T04:56:10.532Z,356
2023-04-30T04:56:42.665Z,356
2023-04-30T04:57:12.636Z,356
2023-04-30T04:57:46.701Z,356
2023-04-30T04:58:18.615Z,356
2023-04-30T04:58:41.368Z,356
2023-04-30T04:59:03.713Z,356
2023-04-30T04:59:38.773Z,356
2023-04-30T05:00:10.978Z,356
2023-04-30T05:00:42.667Z,356
2023-04-30T05:01:12.624Z,356
2023-04-30T05:01:46.664Z,356
2023-04-30T05:02:18.698Z,356
2023-04-30T05:02:41.529Z,356
2023-04-30T05:03:03.995Z,356
2023-04-30T05:03:38.789Z,356
2023-04-30T05:04:10.665Z,356
2023-04-30T05:04:42.513Z,356
2023-04-30T05:05:12.708Z,356
2023-04-30T05:05:46.665Z,355
2023-04-30T05:06:18.682Z,356
2023-04-30T05:06:41.933Z,356
2023-04-30T05:07:04.081Z,356
2023-04-30T05:07:38.622Z,356
2023-04-30T05:08:10.660Z,356
2023-04-30T05:08:42.710Z,356
2023-04-30T05:09:12.631Z,356
2023-04-30T05:09:46.650Z,356
2023-04-30T05:10:18.620Z,356
2023-04-30T05:10:41.303Z,356
2023-04-30T05:11:03.795Z,356
2023-04-30T05:11:38.707Z,356
2023-04-30T05:12:10.646Z,356
2023-04-30T05:12:42.675Z,356
2023-04-30T05:13:12.632Z,348
2023-04-30T05:13:46.663Z,336
2023-04-30T05:14:18.578Z,338
2023-04-30T05:14:41.448Z,338
2023-04-30T05:15:04.660Z,337
2023-04-30T05:15:38.670Z,337
2023-04-30T05:16:10.645Z,338
2023-04-30T05:16:42.753Z,338
2023-04-30T05:17:12.592Z,339
2023-04-30T05:17:46.671Z,340
2023-04-30T05:18:18.640Z,342
2023-04-30T05:18:41.386Z,346
2023-04-30T05:19:03.674Z,353
2023-04-30T05:19:38.776Z,356
2023-04-30T05:20:10.709Z,2
2023-04-30T05:20:42.532Z,5
2023-04-30T05:21:12.634Z,6
2023-04-30T05:21:46.721Z,6
2023-04-30T05:22:18.729Z,9
2023-04-30T05:22:41.678Z,31
2023-04-30T05:23:03.939Z,50
2023-04-30T05:23:38.572Z,58
2023-04-30T05:24:10.788Z,55
2023-04-30T05:24:42.741Z,52
2023-04-30T05:25:12.559Z,49
2023-04-30T05:25:46.789Z,56
2023-04-30T05:26:18.628Z,47
2023-04-30T05:26:41.321Z,45
2023-04-30T05:27:03.716Z,58
2023-04-30T05:27:38.749Z,68
2023-04-30T05:28:10.574Z,70
2023-04-30T05:28:42.564Z,71
2023-04-30T05:29:12.600Z,10
2023-04-30T05:29:46.658Z,10
2023-04-30T05:30:18.642Z,37
2023-04-30T05:30:41.454Z,46
2023-04-30T05:31:03.773Z,84
2023-04-30T05:31:38.860Z,66
2023-04-30T05:32:10.652Z,90
2023-04-30T05:32:42.780Z,86
2023-04-30T05:33:12.590Z,75
2023-04-30T05:33:46.477Z,109
2023-04-30T05:34:18.656Z,73
2023-04-30T05:34:41.683Z,67
2023-04-30T05:35:03.990Z,79
2023-04-30T05:35:38.623Z,68
2023-04-30T05:36:10.749Z,65
2023-04-30T05:36:44.211Z,17
2023-04-30T05:37:12.621Z,19
2023-04-30T05:37:46.582Z,358
2023-04-30T05:38:18.713Z,326
2023-04-30T05:38:41.630Z,338
2023-04-30T05:39:03.968Z,41
2023-04-30T05:39:38.622Z,88
2023-04-30T05:40:10.654Z,80
2023-04-30T05:40:42.803Z,75
2023-04-30T05:41:12.689Z,63
2023-04-30T05:41:46.571Z,68
2023-04-30T05:42:18.773Z,90
2023-04-30T05:42:41.421Z,70
2023-04-30T05:43:04.112Z,65
2023-04-30T05:43:38.596Z,35
2023-04-30T05:44:10.514Z,78
2023-04-30T05:44:42.637Z,65
2023-04-30T05:45:12.572Z,57
2023-04-30T05:45:46.665Z,58
2023-04-30T05:46:18.590Z,63
2023-04-30T05:46:41.340Z,98
2023-04-30T05:47:03.702Z,74
2023-04-30T05:47:38.742Z,64
2023-04-30T05:48:10.620Z,68
2023-04-30T05:48:42.596Z,77
2023-04-30T05:49:12.497Z,43
2023-04-30T05:49:46.565Z,77
2023-04-30T05:50:18.639Z,68
2023-04-30T05:50:41.327Z,24
2023-04-30T05:51:03.746Z,74
2023-04-30T05:51:38.715Z,71
2023-04-30T05:52:10.658Z,77
2023-04-30T05:52:42.486Z,68
2023-04-30T05:53:12.529Z,73
2023-04-30T05:53:46.641Z,74
2023-04-30T05:54:18.623Z,71
2023-04-30T05:54:42.537Z,75
2023-04-30T05:55:04.916Z,69
2023-04-30T05:55:38.827Z,81
2023-04-30T05:56:10.772Z,71
2023-04-30T05:56:42.621Z,88
2023-04-30T05:57:12.539Z,85
2023-04-30T05:57:46.667Z,74
2023-04-30T05:58:18.728Z,68
2023-04-30T05:58:41.437Z,63
2023-04-30T05:59:04.511Z,63
2023-04-30T05:59:38.780Z,81
2023-04-30T06:00:18.304Z,87
2023-04-30T06:00:42.833Z,85
2023-04-30T06:01:12.772Z,75
2023-04-30T06:01:46.749Z,75
2023-04-30T06:02:18.595Z,92
2023-04-30T06:02:41.552Z,61
2023-04-30T06:03:04.035Z,71
2023-04-30T06:03:38.643Z,111
2023-04-30T06:04:10.587Z,81
2023-04-30T06:04:42.697Z,70
2023-04-30T06:05:46.568Z,62
2023-04-30T06:06:18.690Z,56
2023-04-30T06:06:41.470Z,67
2023-04-30T06:07:03.766Z,73
2023-04-30T06:07:38.660Z,72
2023-04-30T06:08:10.649Z,77
2023-04-30T06:08:42.491Z,68
2023-04-30T06:09:12.530Z,81
2023-04-30T06:09:46.498Z,81
2023-04-30T06:10:18.898Z,54
2023-04-30T06:10:41.826Z,62
2023-04-30T06:11:04.338Z,47
2023-04-30T06:11:39.486Z,79
2023-04-30T06:12:10.605Z,78
2023-04-30T06:12:42.626Z,47
2023-04-30T06:13:12.754Z,69
2023-04-30T06:13:46.580Z,62
2023-04-30T06:14:18.687Z,66
2023-04-30T06:14:41.463Z,54
2023-04-30T06:15:05.434Z,71
2023-04-30T06:15:38.707Z,62
2023-04-30T06:16:10.647Z,93
2023-04-30T06:16:42.660Z,25
2023-04-30T06:17:12.845Z,97
2023-04-30T06:17:46.664Z,15
2023-04-30T06:18:18.592Z,67
2023-04-30T06:18:41.387Z,75
2023-04-30T06:19:05.520Z,55
2023-04-30T06:19:38.757Z,128
2023-04-30T06:20:10.678Z,34
2023-04-30T06:20:42.539Z,85
2023-04-30T06:21:12.606Z,336
2023-04-30T06:21:46.670Z,76
2023-04-30T06:22:18.632Z,92
2023-04-30T06:22:41.498Z,99
2023-04-30T06:23:06.784Z,55
2023-04-30T06:23:38.684Z,72
2023-04-30T06:24:10.785Z,70
2023-04-30T06:24:42.533Z,72
2023-04-30T06:25:12.737Z,66
2023-04-30T06:25:46.536Z,70
2023-04-30T06:26:18.734Z,90
2023-04-30T06:26:41.506Z,101
2023-04-30T06:27:03.853Z,111
2023-04-30T06:27:38.807Z,123
2023-04-30T06:28:10.587Z,58
2023-04-30T06:28:42.533Z,56
2023-04-30T06:29:12.606Z,23
2023-04-30T06:29:46.585Z,80
2023-04-30T06:30:18.659Z,56
2023-04-30T06:30:41.337Z,96
2023-04-30T06:31:03.998Z,71
2023-04-30T06:31:38.587Z,97
2023-04-30T06:32:10.640Z,88
2023-04-30T06:32:42.830Z,83
2023-04-30T06:33:12.766Z,18
2023-04-30T06:33:46.729Z,122
2023-04-30T06:34:18.767Z,45
2023-04-30T06:34:43.904Z,102
2023-04-30T06:35:08.894Z,26
2023-04-30T06:35:38.703Z,72
2023-04-30T06:36:10.723Z,64
2023-04-30T06:36:42.620Z,5
2023-04-30T06:37:14.570Z,115
2023-04-30T06:37:46.873Z,39
2023-04-30T06:38:19.229Z,70
2023-04-30T06:38:41.863Z,1
2023-04-30T06:39:04.159Z,66
2023-04-30T06:39:38.632Z,257
2023-04-30T06:40:10.940Z,355
2023-04-30T06:40:42.669Z,85
2023-04-30T06:41:12.668Z,83
2023-04-30T06:41:46.655Z,357
2023-04-30T06:42:19.153Z,129
2023-04-30T06:42:41.914Z,9
2023-04-30T06:43:04.409Z,96
2023-04-30T06:43:38.752Z,13
2023-04-30T06:44:11.194Z,16
2023-04-30T06:44:42.970Z,20
2023-04-30T06:45:14.910Z,105
2023-04-30T06:45:46.789Z,147
2023-04-30T06:46:18.747Z,107
2023-04-30T06:46:42.504Z,69
2023-04-30T06:47:04.942Z,36
2023-04-30T06:47:44.838Z,101
2023-04-30T06:48:07.873Z,260
2023-04-30T06:48:43.507Z,305
2023-04-30T06:49:12.746Z,44
2023-04-30T06:49:46.616Z,313
2023-04-30T06:50:18.686Z,68
2023-04-30T06:50:41.385Z,83
2023-04-30T06:51:04.057Z,57
2023-04-30T06:51:38.790Z,90
2023-04-30T06:52:11.440Z,87
2023-04-30T06:52:42.811Z,78
2023-04-30T06:53:12.988Z,80
2023-04-30T06:53:46.754Z,69
2023-04-30T06:54:19.365Z,71
2023-04-30T06:54:42.105Z,115
2023-04-30T06:55:04.302Z,59
2023-04-30T06:55:39.289Z,138
2023-04-30T06:56:12.190Z,201
2023-04-30T06:56:42.684Z,315
2023-04-30T06:57:13.505Z,15
2023-04-30T06:57:46.790Z,100
2023-04-30T06:58:19.194Z,21
2023-04-30T06:58:41.912Z,21
2023-04-30T06:59:04.641Z,126
2023-04-30T06:59:38.673Z,119
2023-04-30T07:00:14.254Z,9
2023-04-30T07:00:42.583Z,139
2023-04-30T07:01:13.514Z,252
2023-04-30T07:01:46.803Z,332
2023-04-30T07:02:19.959Z,55
2023-04-30T07:02:41.960Z,34
2023-04-30T07:03:18.781Z,117
2023-04-30T07:03:39.218Z,89
2023-04-30T07:04:17.215Z,268